Time;durP1;ratioP1;P1;durP2;ratioP2;P2;SDS_P1;SDS_P2;PMS_P1;PMS_P2;Temp;Humidity;BMP_temperature;BMP_pressure;BME280_temperature;BME280_humidity;BME280_pressure;Samples;Min_cycle;Max_cycle;Signal;HPM_P1;HPM_P2
2022/02/21 00:00:10;;;;;;;24.10;4.65;;;8.20;67.60;;;;;;5092452;28;20081;-86
2022/02/21 00:02:38;;;;;;;21.48;4.03;;;8.20;67.40;;;;;;5092825;28;20101;-86
2022/02/21 00:05:06;;;;;;;18.83;3.85;;;8.10;67.30;;;;;;5092239;28;20418;-86
2022/02/21 00:07:33;;;;;;;21.73;4.53;;;8.00;67.20;;;;;;5093072;28;20048;-86
2022/02/21 00:10:00;;;;;;;21.73;4.40;;;8.00;67.20;;;;;;5092555;28;20109;-87
2022/02/21 00:12:27;;;;;;;22.35;5.18;;;8.00;67.10;;;;;;5092379;28;20040;-86
2022/02/21 00:14:54;;;;;;;28.90;4.68;;;8.00;67.00;;;;;;5092449;28;20109;-86
2022/02/21 00:17:21;;;;;;;26.95;4.90;;;7.90;67.00;;;;;;5092464;28;20051;-87
2022/02/21 00:19:47;;;;;;;20.00;3.90;;;7.90;66.90;;;;;;5088356;28;20441;-86
2022/02/21 00:22:15;;;;;;;22.30;4.40;;;7.90;66.90;;;;;;5092222;28;20048;-86
2022/02/21 00:24:42;;;;;;;25.17;4.97;;;7.80;66.90;;;;;;5092172;28;20468;-86
2022/02/21 00:27:09;;;;;;;28.45;4.82;;;7.80;66.90;;;;;;5092222;28;20047;-86
2022/02/21 00:29:36;;;;;;;24.67;4.53;;;7.80;66.90;;;;;;5092273;28;20097;-86
2022/02/21 00:32:03;;;;;;;24.50;4.57;;;7.70;67.00;;;;;;5092020;28;20056;-86
2022/02/21 00:34:30;;;;;;;17.15;3.88;;;7.70;67.10;;;;;;5092694;28;20048;-86
2022/02/21 00:36:57;;;;;;;26.35;5.07;;;7.70;67.20;;;;;;5091800;28;20176;-86
2022/02/21 00:39:24;;;;;;;23.98;5.13;;;7.60;67.20;;;;;;5073958;28;20044;-85
2022/02/21 00:41:51;;;;;;;28.45;4.63;;;7.60;67.10;;;;;;5092061;28;20524;-86
2022/02/21 00:44:18;;;;;;;21.60;4.70;;;7.60;67.10;;;;;;5091978;28;20067;-86
2022/02/21 00:46:45;;;;;;;38.17;5.35;;;7.50;67.00;;;;;;5091504;28;20498;-85
2022/02/21 00:49:12;;;;;;;29.45;4.55;;;7.50;66.90;;;;;;5091894;28;20060;-86
2022/02/21 00:51:38;;;;;;;27.27;5.22;;;7.40;66.70;;;;;;5091620;28;20055;-86
2022/02/21 00:54:06;;;;;;;27.83;4.55;;;7.40;66.70;;;;;;5091862;28;20056;-86
2022/02/21 00:56:33;;;;;;;18.60;3.95;;;7.40;66.60;;;;;;5091737;28;20052;-86
2022/02/21 00:58:59;;;;;;;31.25;4.82;;;7.40;66.60;;;;;;5091874;28;20044;-86
2022/02/21 01:01:26;;;;;;;21.95;4.10;;;7.40;66.70;;;;;;5091945;28;20113;-86
2022/02/21 01:03:53;;;;;;;23.08;4.55;;;7.30;66.70;;;;;;5091761;28;20063;-86
2022/02/21 01:06:20;;;;;;;24.08;4.88;;;7.30;66.90;;;;;;5091694;28;20035;-85
2022/02/21 01:08:47;;;;;;;23.00;4.72;;;7.30;67.00;;;;;;5091590;28;20157;-85
2022/02/21 01:11:14;;;;;;;21.38;4.53;;;7.30;67.10;;;;;;5091677;28;20106;-86
2022/02/21 01:13:41;;;;;;;25.48;4.97;;;7.20;67.10;;;;;;5092178;28;20091;-85
2022/02/21 01:16:08;;;;;;;29.38;5.40;;;7.20;67.20;;;;;;5091217;28;20055;-86
2022/02/21 01:18:35;;;;;;;31.55;5.18;;;7.20;67.20;;;;;;5091417;28;20048;-86
2022/02/21 01:21:03;;;;;;;29.15;4.75;;;7.20;67.20;;;;;;5091441;28;20056;-85
2022/02/21 01:23:31;;;;;;;26.50;4.93;;;7.20;67.20;;;;;;5091659;28;20044;-86
2022/02/21 01:25:57;;;;;;;30.92;5.03;;;7.20;67.30;;;;;;5091770;28;20051;-86
2022/02/21 01:28:24;;;;;;;27.75;5.53;;;7.20;67.40;;;;;;5091885;28;20055;-86
2022/02/21 01:30:51;;;;;;;27.05;4.97;;;7.10;67.40;;;;;;5091095;28;20067;-86
2022/02/21 01:33:19;;;;;;;30.08;5.30;;;7.10;67.40;;;;;;5091388;28;20044;-86
2022/02/21 01:35:46;;;;;;;31.52;5.22;;;7.10;67.40;;;;;;5091473;28;20044;-85
2022/02/21 01:38:14;;;;;;;26.52;4.93;;;7.10;67.50;;;;;;5091448;28;20437;-86
2022/02/21 01:40:41;;;;;;;19.67;4.82;;;7.10;67.50;;;;;;5074104;28;20040;-86
2022/02/21 01:43:08;;;;;;;24.85;4.75;;;7.00;67.50;;;;;;5091320;28;20059;-86
2022/02/21 01:45:35;;;;;;;31.15;5.90;;;7.10;67.50;;;;;;5091029;28;20040;-86
2022/02/21 01:48:02;;;;;;;32.55;5.65;;;7.10;67.50;;;;;;5091230;28;20051;-85
2022/02/21 01:50:28;;;;;;;24.85;4.60;;;7.00;67.50;;;;;;5091445;28;20048;-86
2022/02/21 01:52:56;;;;;;;31.80;5.82;;;7.00;67.50;;;;;;5091348;28;20059;-86
2022/02/21 01:55:22;;;;;;;25.60;5.13;;;7.00;67.60;;;;;;5090641;28;20059;-85
2022/02/21 01:57:50;;;;;;;21.77;4.93;;;7.00;67.70;;;;;;5093285;28;20052;-87
2022/02/21 02:00:18;;;;;;;23.10;5.18;;;7.00;67.70;;;;;;5094647;28;20043;-86
2022/02/21 02:02:46;;;;;;;28.13;4.88;;;7.00;67.80;;;;;;5094996;28;20052;-85
2022/02/21 02:05:17;;;;;;;31.35;4.85;;;7.00;67.80;;;;;;5094765;28;20414;-86
2022/02/21 02:07:44;;;;;;;22.38;4.18;;;7.00;67.80;;;;;;5095351;28;20067;-86
2022/02/21 02:10:15;;;;;;;26.45;4.82;;;7.00;67.70;;;;;;5094707;28;20123;-86
2022/02/21 02:12:43;;;;;;;27.67;4.82;;;7.00;67.70;;;;;;5094796;28;20067;-86
2022/02/21 02:15:12;;;;;;;28.95;4.97;;;7.00;67.70;;;;;;5094427;28;20052;-86
2022/02/21 02:17:39;;;;;;;32.42;5.60;;;6.90;67.60;;;;;;5094655;28;20048;-86
2022/02/21 02:20:06;;;;;;;24.88;5.47;;;6.90;67.60;;;;;;5094692;28;20044;-86
2022/02/21 02:22:33;;;;;;;23.92;4.70;;;6.90;67.60;;;;;;5095165;28;20047;-85
2022/02/21 02:25:00;;;;;;;24.92;5.10;;;7.00;67.60;;;;;;5094462;28;20536;-86
2022/02/21 02:27:27;;;;;;;28.95;5.85;;;7.00;67.60;;;;;;5094351;28;20044;-86
2022/02/21 02:29:55;;;;;;;25.73;5.05;;;6.90;67.50;;;;;;5094111;28;20051;-86
2022/02/21 02:32:22;;;;;;;29.08;5.10;;;6.90;67.50;;;;;;5094557;28;20048;-85
2022/02/21 02:34:51;;;;;;;24.80;4.47;;;6.90;67.40;;;;;;5095007;28;20044;-86
2022/02/21 02:37:23;;;;;;;25.58;5.10;;;6.90;67.40;;;;;;5094003;28;20055;-87
2022/02/21 02:39:52;;;;;;;26.73;4.90;;;6.90;67.40;;;;;;5094172;28;20055;-87
2022/02/21 02:42:19;;;;;;;27.55;5.15;;;6.90;67.30;;;;;;5094211;28;20048;-87
2022/02/21 02:44:46;;;;;;;33.65;4.93;;;6.90;67.30;;;;;;5093915;28;20047;-87
2022/02/21 02:47:14;;;;;;;25.50;5.07;;;6.90;67.30;;;;;;5094095;28;20059;-87
2022/02/21 02:49:41;;;;;;;31.88;5.80;;;6.90;67.30;;;;;;5094674;28;20105;-87
2022/02/21 02:52:09;;;;;;;26.05;4.88;;;6.90;67.30;;;;;;5093803;28;20052;-85
2022/02/21 02:54:36;;;;;;;23.23;4.63;;;6.90;67.30;;;;;;5093922;28;20413;-86
2022/02/21 02:57:03;;;;;;;25.15;4.60;;;6.80;67.20;;;;;;5093336;28;20055;-85
2022/02/21 02:59:30;;;;;;;29.90;5.82;;;6.80;67.20;;;;;;5093899;28;20048;-86
2022/02/21 03:01:57;;;;;;;27.63;4.93;;;6.90;67.20;;;;;;5094194;28;20056;-86
2022/02/21 03:04:24;;;;;;;27.98;7.63;;;6.90;67.10;;;;;;5075227;28;20510;-86
2022/02/21 03:06:51;;;;;;;26.45;5.45;;;6.80;67.10;;;;;;5093647;28;20505;-86
2022/02/21 03:09:18;;;;;;;26.10;4.55;;;6.90;67.10;;;;;;5093046;28;20054;-85
2022/02/21 03:11:45;;;;;;;24.38;4.22;;;6.80;67.10;;;;;;5093352;28;20052;-86
2022/02/21 03:14:11;;;;;;;23.20;4.55;;;6.80;67.00;;;;;;5093511;28;20052;-86
2022/02/21 03:16:38;;;;;;;26.92;5.07;;;6.80;67.10;;;;;;5093985;28;20088;-86
2022/02/21 03:19:06;;;;;;;33.50;5.35;;;6.80;67.10;;;;;;5093354;28;20048;-86
2022/02/21 03:21:32;;;;;;;28.95;4.65;;;6.80;67.20;;;;;;5093340;28;20048;-86
2022/02/21 03:23:59;;;;;;;25.73;4.75;;;6.90;67.40;;;;;;5093318;28;20055;-86
2022/02/21 03:26:26;;;;;;;25.95;5.07;;;6.90;67.50;;;;;;5093162;28;20517;-86
2022/02/21 03:28:54;;;;;;;28.90;5.50;;;6.80;67.60;;;;;;5093544;28;20113;-86
2022/02/21 03:31:21;;;;;;;29.65;4.90;;;6.80;67.80;;;;;;5093519;28;20567;-86
2022/02/21 03:33:49;;;;;;;21.90;4.63;;;6.80;68.00;;;;;;5093144;28;20048;-86
2022/02/21 03:36:16;;;;;;;28.45;4.88;;;6.80;68.10;;;;;;5093012;28;20043;-86
2022/02/21 03:38:43;;;;;;;24.83;4.88;;;6.80;68.20;;;;;;5093216;28;20115;-86
2022/02/21 03:41:10;;;;;;;24.58;4.93;;;6.80;68.30;;;;;;5092753;28;20051;-86
2022/02/21 03:43:38;;;;;;;23.48;3.65;;;6.80;68.40;;;;;;5093639;28;20055;-86
2022/02/21 03:46:05;;;;;;;16.15;3.42;;;6.70;68.30;;;;;;5092832;28;20498;-86
2022/02/21 03:48:32;;;;;;;20.77;3.90;;;6.70;68.10;;;;;;5092820;28;20413;-86
2022/02/21 03:50:59;;;;;;;19.52;3.60;;;6.70;68.00;;;;;;5092690;28;20433;-86
2022/02/21 03:53:26;;;;;;;23.65;3.88;;;6.70;67.90;;;;;;5092731;28;20044;-87
2022/02/21 03:55:55;;;;;;;20.50;3.45;;;6.70;67.80;;;;;;5092835;28;20048;-87
2022/02/21 03:58:22;;;;;;;27.77;4.13;;;6.70;67.70;;;;;;5092833;28;20052;-87
2022/02/21 04:00:50;;;;;;;29.00;4.22;;;6.70;67.70;;;;;;5092546;28;20422;-87
2022/02/21 04:03:17;;;;;;;19.83;4.03;;;6.70;67.60;;;;;;5092628;28;20052;-87
2022/02/21 04:05:44;;;;;;;23.75;4.18;;;6.70;67.60;;;;;;5092646;28;20048;-87
2022/02/21 04:08:11;;;;;;;22.73;4.15;;;6.70;67.60;;;;;;5092588;28;20071;-86
2022/02/21 04:10:38;;;;;;;17.27;3.00;;;6.70;67.60;;;;;;5092770;28;20040;-86
2022/02/21 04:13:04;;;;;;;23.17;3.70;;;6.70;67.60;;;;;;5092464;28;20063;-86
2022/02/21 04:15:33;;;;;;;25.10;4.25;;;6.80;67.70;;;;;;5092371;28;20505;-86
2022/02/21 04:17:59;;;;;;;20.70;3.47;;;6.70;67.70;;;;;;5092287;28;20073;-86
2022/02/21 04:20:27;;;;;;;28.13;4.30;;;6.70;67.80;;;;;;5091633;28;20048;-86
2022/02/21 04:22:54;;;;;;;21.05;3.63;;;6.70;67.90;;;;;;5092558;28;20052;-86
2022/02/21 04:25:22;;;;;;;17.70;3.38;;;6.70;67.90;;;;;;5092538;28;20460;-86
2022/02/21 04:27:51;;;;;;;19.98;4.10;;;6.70;67.90;;;;;;5100040;28;20094;-86
2022/02/21 04:30:21;;;;;;;15.18;2.78;;;6.70;67.90;;;;;;5084129;28;20501;-85
2022/02/21 04:32:49;;;;;;;17.25;2.88;;;6.70;68.00;;;;;;5074100;28;20044;-86
2022/02/21 04:35:18;;;;;;;18.15;2.97;;;6.70;68.00;;;;;;5092285;28;20044;-86
2022/02/21 04:37:45;;;;;;;13.00;3.00;;;6.70;68.00;;;;;;5092561;28;20052;-86
2022/02/21 04:40:18;;;;;;;16.48;3.10;;;6.70;68.00;;;;;;5091695;28;20044;-86
2022/02/21 04:42:48;;;;;;;21.60;3.55;;;6.70;68.10;;;;;;5091939;28;20048;-86
2022/02/21 04:45:15;;;;;;;16.50;3.13;;;6.60;68.10;;;;;;5092012;28;20048;-85
2022/02/21 04:47:42;;;;;;;12.02;2.78;;;6.60;68.20;;;;;;5092017;28;20548;-86
2022/02/21 04:50:10;;;;;;;17.50;3.03;;;6.60;68.30;;;;;;5092036;28;20048;-86
2022/02/21 04:52:37;;;;;;;19.50;3.20;;;6.60;68.40;;;;;;5092469;28;20062;-86
2022/02/21 04:55:05;;;;;;;17.50;3.15;;;6.60;68.50;;;;;;5091461;28;20052;-86
2022/02/21 04:57:33;;;;;;;15.38;3.45;;;6.60;68.60;;;;;;5073649;28;20044;-86
2022/02/21 05:00:01;;;;;;;16.70;3.17;;;6.60;68.80;;;;;;5091792;28;20052;-85
2022/02/21 05:02:28;;;;;;;19.77;3.45;;;6.50;68.90;;;;;;5091880;28;20071;-86
2022/02/21 05:04:55;;;;;;;19.35;3.33;;;6.60;69.00;;;;;;5091920;28;20056;-86
2022/02/21 05:07:21;;;;;;;19.35;2.75;;;6.50;69.10;;;;;;5092148;28;20442;-85
2022/02/21 05:09:48;;;;;;;16.52;3.47;;;6.50;69.20;;;;;;5091219;28;20049;-85
2022/02/21 05:12:15;;;;;;;14.38;3.05;;;6.50;69.20;;;;;;5091424;28;20399;-85
2022/02/21 05:14:42;;;;;;;17.75;2.80;;;6.50;69.20;;;;;;5073842;28;20059;-85
2022/02/21 05:17:09;;;;;;;17.58;3.75;;;6.50;69.10;;;;;;5091562;28;20048;-86
2022/02/21 05:19:36;;;;;;;19.15;3.28;;;6.50;69.00;;;;;;5092193;28;20048;-86
2022/02/21 05:22:03;;;;;;;17.35;2.60;;;6.50;68.90;;;;;;5091094;28;20044;-86
2022/02/21 05:24:31;;;;;;;21.75;3.40;;;6.50;68.80;;;;;;5091595;28;20051;-86
2022/02/21 05:26:58;;;;;;;17.20;2.97;;;6.50;68.70;;;;;;5073606;28;20040;-85
2022/02/21 05:29:25;;;;;;;20.00;3.65;;;6.40;68.50;;;;;;5091507;28;20052;-85
2022/02/21 05:31:52;;;;;;;14.80;2.55;;;6.40;68.40;;;;;;5092692;28;20048;-85
2022/02/21 05:34:19;;;;;;;13.32;2.78;;;6.40;68.30;;;;;;5095246;28;20059;-85
2022/02/21 05:36:46;;;;;;;16.58;2.40;;;6.40;68.30;;;;;;5094977;28;20058;-85
2022/02/21 05:39:13;;;;;;;15.15;2.42;;;6.40;68.40;;;;;;5095358;28;20052;-85
2022/02/21 05:41:40;;;;;;;19.85;2.83;;;6.40;68.50;;;;;;5095441;28;20050;-85
2022/02/21 05:44:07;;;;;;;14.75;2.50;;;6.40;68.60;;;;;;5095391;28;20506;-85
2022/02/21 05:46:35;;;;;;;19.65;3.28;;;6.40;68.80;;;;;;5095919;28;20063;-85
2022/02/21 05:49:02;;;;;;;18.70;3.08;;;6.40;69.00;;;;;;5095185;28;20058;-85
2022/02/21 05:51:30;;;;;;;20.10;3.03;;;6.40;69.30;;;;;;5094615;28;20048;-85
2022/02/21 05:53:56;;;;;;;12.88;2.97;;;6.40;69.50;;;;;;5095222;28;20401;-85
2022/02/21 05:56:23;;;;;;;15.50;2.95;;;6.40;69.70;;;;;;5077177;28;20557;-85
2022/02/21 05:58:50;;;;;;;19.00;3.53;;;6.30;69.90;;;;;;5095773;28;20048;-85
2022/02/21 06:01:18;;;;;;;18.60;3.00;;;6.40;70.00;;;;;;5095054;28;20044;-85
2022/02/21 06:03:45;;;;;;;14.55;3.00;;;6.30;70.00;;;;;;5094871;28;20044;-85
2022/02/21 06:06:12;;;;;;;25.70;3.22;;;6.30;70.10;;;;;;5094602;28;20044;-86
2022/02/21 06:08:39;;;;;;;19.65;3.17;;;6.30;70.10;;;;;;5094900;28;20040;-86
2022/02/21 06:11:06;;;;;;;14.98;3.35;;;6.20;70.10;;;;;;5094899;28;20093;-85
2022/02/21 06:13:33;;;;;;;18.23;3.22;;;6.20;70.10;;;;;;5093425;28;20044;-85
2022/02/21 06:16:00;;;;;;;17.52;3.40;;;6.20;70.10;;;;;;5094667;28;20101;-85
2022/02/21 06:18:27;;;;;;;17.58;3.35;;;6.20;70.10;;;;;;5094554;28;20121;-85
2022/02/21 06:20:54;;;;;;;16.48;3.42;;;6.20;70.10;;;;;;5094301;28;20051;-85
2022/02/21 06:23:21;;;;;;;22.60;3.33;;;6.20;70.20;;;;;;5094871;28;20040;-85
2022/02/21 06:25:48;;;;;;;22.25;3.38;;;6.20;70.20;;;;;;5089810;28;20047;-85
2022/02/21 06:28:15;;;;;;;18.08;3.72;;;6.20;70.20;;;;;;5093307;28;20058;-85
2022/02/21 06:30:42;;;;;;;18.20;4.07;;;6.10;70.20;;;;;;5095041;28;20498;-85
2022/02/21 06:33:09;;;;;;;18.65;3.53;;;6.20;70.20;;;;;;5090167;28;20533;-85
2022/02/21 06:35:37;;;;;;;15.23;3.08;;;6.20;70.20;;;;;;5092776;28;20040;-86
2022/02/21 06:38:05;;;;;;;21.95;3.13;;;6.20;70.20;;;;;;5094166;28;20054;-86
2022/02/21 06:40:32;;;;;;;19.90;3.35;;;6.20;70.20;;;;;;5078630;28;20040;-86
2022/02/21 06:42:59;;;;;;;21.25;3.47;;;6.20;70.20;;;;;;5102620;28;20609;-87
2022/02/21 06:45:27;;;;;;;17.88;3.25;;;6.20;70.20;;;;;;5101151;28;20044;-85
2022/02/21 06:47:57;;;;;;;17.73;3.13;;;6.20;70.20;;;;;;5096086;28;20047;-85
2022/02/21 06:50:25;;;;;;;23.10;3.95;;;6.20;70.20;;;;;;5089813;28;20099;-85
2022/02/21 06:52:53;;;;;;;20.85;3.42;;;6.20;70.10;;;;;;5097337;28;20052;-85
2022/02/21 06:55:22;;;;;;;16.27;3.50;;;6.20;70.20;;;;;;5094603;28;20044;-85
2022/02/21 06:57:50;;;;;;;17.52;3.25;;;6.20;70.10;;;;;;5079074;28;20502;-84
2022/02/21 07:00:17;;;;;;;19.40;3.38;;;6.20;70.10;;;;;;5094106;28;20051;-86
2022/02/21 07:02:44;;;;;;;18.27;3.25;;;6.20;70.10;;;;;;5092819;28;20417;-85
2022/02/21 07:05:12;;;;;;;18.92;3.30;;;6.20;70.10;;;;;;5091688;28;20066;-85
2022/02/21 07:07:39;;;;;;;16.80;3.42;;;6.20;70.00;;;;;;5096989;28;20051;-85
2022/02/21 07:10:07;;;;;;;20.75;3.72;;;6.20;70.00;;;;;;5095665;28;20059;-85
2022/02/21 07:12:34;;;;;;;22.77;3.40;;;6.20;69.90;;;;;;5093862;28;20036;-84
2022/02/21 07:15:01;;;;;;;22.23;3.95;;;6.20;70.00;;;;;;5095464;28;20055;-85
2022/02/21 07:17:28;;;;;;;16.65;3.20;;;6.20;69.90;;;;;;5090401;28;20109;-85
2022/02/21 07:19:55;;;;;;;19.67;3.65;;;6.30;69.90;;;;;;5088985;28;20535;-86
2022/02/21 07:22:24;;;;;;;21.17;3.92;;;6.30;69.80;;;;;;5096737;28;20073;-85
2022/02/21 07:24:51;;;;;;;19.63;3.30;;;6.30;69.80;;;;;;5075647;28;20059;-85
2022/02/21 07:27:18;;;;;;;25.38;4.45;;;6.30;69.80;;;;;;5093529;28;20047;-87
2022/02/21 07:29:45;;;;;;;22.85;3.45;;;6.30;69.90;;;;;;5092521;28;20040;-85
2022/02/21 07:32:12;;;;;;;22.88;3.67;;;6.30;69.90;;;;;;5091736;28;20048;-86
2022/02/21 07:34:39;;;;;;;21.27;3.90;;;6.40;70.00;;;;;;5095288;28;20048;-86
2022/02/21 07:37:07;;;;;;;23.23;3.75;;;6.40;70.00;;;;;;5093650;28;20048;-85
2022/02/21 07:39:34;;;;;;;23.70;4.07;;;6.40;70.10;;;;;;5078369;28;20051;-85
2022/02/21 07:42:01;;;;;;;19.52;3.97;;;6.40;70.10;;;;;;5093230;28;20047;-88
2022/02/21 07:44:28;;;;;;;27.38;4.50;;;6.40;70.20;;;;;;5089853;28;20056;-87
2022/02/21 07:46:55;;;;;;;21.13;3.75;;;6.40;70.20;;;;;;5110733;27;20051;-86
2022/02/21 07:49:24;;;;;;;24.30;3.58;;;6.40;70.20;;;;;;5078300;28;20120;-87
2022/02/21 07:51:51;;;;;;;24.05;4.40;;;6.40;70.20;;;;;;5092533;28;20138;-86
2022/02/21 07:54:18;;;;;;;24.02;4.43;;;6.50;70.10;;;;;;5093046;28;20040;-86
2022/02/21 07:57:06;;;;;;;27.15;4.63;;;6.50;70.10;;;;;;5093123;28;20072;-86
2022/02/21 07:59:33;;;;;;;27.80;4.82;;;6.50;70.10;;;;;;5090339;28;20059;-86
2022/02/21 08:02:00;;;;;;;21.67;4.00;;;6.60;70.10;;;;;;5075732;28;20051;-85
2022/02/21 08:04:27;;;;;;;39.17;5.10;;;6.60;70.20;;;;;;5094490;28;20048;-86
2022/02/21 08:06:54;;;;;;;27.85;4.70;;;6.60;70.20;;;;;;5075145;28;20048;-86
2022/02/21 08:09:21;;;;;;;30.48;5.15;;;6.70;70.40;;;;;;5093005;28;20053;-86
2022/02/21 08:11:49;;;;;;;26.10;5.05;;;6.70;70.40;;;;;;5074131;28;20051;-86
2022/02/21 08:14:16;;;;;;;32.90;5.22;;;6.70;70.50;;;;;;5089750;28;20052;-85
2022/02/21 08:16:43;;;;;;;27.63;5.18;;;6.80;70.60;;;;;;5096079;28;20437;-86
2022/02/21 08:19:13;;;;;;;32.03;5.70;;;6.80;70.60;;;;;;5097914;28;20043;-85
2022/02/21 08:21:40;;;;;;;33.75;5.60;;;6.80;70.70;;;;;;5097928;28;20040;-85
2022/02/21 08:24:07;;;;;;;29.88;5.47;;;6.90;70.70;;;;;;5092545;28;20055;-86
2022/02/21 08:26:34;;;;;;;31.40;5.22;;;6.90;70.70;;;;;;5089289;28;20045;-85
2022/02/21 08:29:02;;;;;;;30.65;5.88;;;6.90;70.70;;;;;;5093192;28;20059;-85
2022/02/21 08:31:29;;;;;;;28.60;5.55;;;7.00;70.70;;;;;;5094170;28;20216;-85
2022/02/21 08:33:56;;;;;;;28.60;5.13;;;7.00;70.70;;;;;;5093894;28;20051;-85
2022/02/21 08:36:26;;;;;;;30.17;5.40;;;7.10;70.80;;;;;;5092577;28;20048;-85
2022/02/21 08:38:54;;;;;;;25.92;4.63;;;7.10;70.90;;;;;;5092192;28;20055;-85
2022/02/21 08:41:21;;;;;;;25.67;4.70;;;7.10;71.00;;;;;;5070584;28;20502;-86
2022/02/21 08:43:48;;;;;;;39.20;6.70;;;7.20;71.00;;;;;;5103616;28;20516;-85
2022/02/21 08:46:15;;;;;;;27.42;5.18;;;7.20;71.00;;;;;;5108844;27;20083;-85
2022/02/21 08:49:02;;;;;;;34.85;5.88;;;7.30;71.00;;;;;;5091960;28;20048;-85
2022/02/21 08:51:30;;;;;;;35.85;5.78;;;7.20;70.90;;;;;;5092389;28;20051;-86
2022/02/21 08:53:57;;;;;;;29.50;5.85;;;7.30;70.90;;;;;;5092260;28;20059;-86
2022/02/21 08:56:27;;;;;;;34.65;6.18;;;7.40;70.90;;;;;;5072573;28;20055;-85
2022/02/21 08:58:54;;;;;;;26.00;5.20;;;7.40;70.90;;;;;;5094641;28;20048;-85
2022/02/21 09:01:21;;;;;;;30.73;6.55;;;7.40;70.90;;;;;;5091422;28;20051;-86
2022/02/21 09:03:48;;;;;;;37.13;6.40;;;7.50;70.90;;;;;;5092910;28;20048;-85
2022/02/21 09:06:16;;;;;;;32.58;5.57;;;7.60;70.90;;;;;;5073659;28;20051;-85
2022/02/21 09:08:43;;;;;;;37.70;5.75;;;7.70;70.80;;;;;;5091434;28;20066;-85
2022/02/21 09:11:10;;;;;;;29.95;6.22;;;7.70;70.60;;;;;;5090351;28;20040;-86
2022/02/21 09:13:37;;;;;;;35.10;5.97;;;7.80;70.50;;;;;;5096292;28;20570;-85
2022/02/21 09:16:05;;;;;;;33.47;6.05;;;7.80;70.40;;;;;;5090784;28;20051;-85
2022/02/21 09:18:33;;;;;;;42.38;6.93;;;7.90;70.30;;;;;;5093403;28;20044;-85
2022/02/21 09:21:00;;;;;;;41.45;7.30;;;7.90;70.20;;;;;;5103292;28;20043;-85
2022/02/21 09:23:27;;;;;;;41.58;6.60;;;7.90;70.20;;;;;;5088289;28;20047;-84
2022/02/21 09:25:55;;;;;;;34.47;7.28;;;7.90;70.20;;;;;;5094341;28;20055;-85
2022/02/21 09:28:23;;;;;;;30.77;7.32;;;8.00;70.40;;;;;;5093324;28;20063;-85
2022/02/21 09:30:53;;;;;;;32.05;7.55;;;8.00;70.50;;;;;;5073847;28;20044;-85
2022/02/21 09:33:23;;;;;;;40.08;6.90;;;8.00;70.70;;;;;;5092577;28;20053;-86
2022/02/21 09:35:51;;;;;;;39.10;6.80;;;8.00;70.80;;;;;;5091429;28;20052;-85
2022/02/21 09:38:19;;;;;;;42.53;7.65;;;8.00;71.00;;;;;;5089015;28;20066;-84
2022/02/21 09:40:50;;;;;;;36.90;6.72;;;7.90;71.20;;;;;;5077915;28;20059;-84
2022/02/21 09:43:27;;;;;;;39.92;6.63;;;8.00;71.30;;;;;;5093339;28;20467;-85
2022/02/21 09:45:58;;;;;;;34.08;5.53;;;8.00;71.60;;;;;;5091501;28;20048;-85
2022/02/21 09:48:27;;;;;;;37.70;6.43;;;7.90;71.80;;;;;;5091391;28;20048;-85
2022/02/21 09:51:00;;;;;;;39.20;6.47;;;7.90;72.20;;;;;;5091307;28;20109;-86
2022/02/21 09:53:29;;;;;;;33.70;6.30;;;7.90;72.40;;;;;;5072812;28;20052;-86
2022/02/21 09:55:56;;;;;;;34.88;6.57;;;7.90;72.60;;;;;;5093613;28;20048;-86
2022/02/21 09:58:24;;;;;;;40.20;7.28;;;7.90;72.80;;;;;;5093793;28;20122;-87
2022/02/21 10:00:54;;;;;;;41.95;6.68;;;7.90;73.00;;;;;;5092795;28;20576;-86
2022/02/21 10:03:36;;;;;;;44.55;7.97;;;7.80;73.20;;;;;;5091289;28;20134;-85
2022/02/21 10:06:25;;;;;;;31.20;6.18;;;7.80;73.40;;;;;;5091563;28;20048;-85
2022/02/21 10:09:08;;;;;;;42.72;7.03;;;7.80;73.50;;;;;;5091208;28;20055;-86
2022/02/21 10:11:42;;;;;;;50.15;7.75;;;7.80;73.60;;;;;;5057322;28;20051;-85
2022/02/21 10:14:12;;;;;;;42.50;7.53;;;7.70;73.60;;;;;;5072498;28;20066;-85
2022/02/21 10:16:51;;;;;;;42.28;7.95;;;7.70;73.60;;;;;;5077218;28;20055;-86
2022/02/21 10:19:25;;;;;;;46.08;9.05;;;7.70;73.70;;;;;;5081298;28;20413;-85
2022/02/21 10:22:01;;;;;;;38.95;7.35;;;7.70;73.70;;;;;;5095250;28;20052;-86
2022/02/21 10:24:46;;;;;;;42.60;7.32;;;7.70;73.70;;;;;;5094549;28;20044;-86
2022/02/21 10:27:18;;;;;;;37.13;7.45;;;7.70;73.80;;;;;;5094808;28;20059;-86
2022/02/21 10:29:52;;;;;;;47.15;7.97;;;7.70;73.80;;;;;;5078246;28;20051;-85
2022/02/21 10:32:26;;;;;;;46.15;7.65;;;7.70;73.80;;;;;;5091793;28;20057;-85
2022/02/21 10:34:54;;;;;;;;;;;7.80;73.80;;;;;;5107027;28;20105;-85
2022/02/21 10:37:23;;;;;;;58.90;8.20;;;7.70;73.70;;;;;;5094870;28;19928;-84
2022/02/21 10:40:07;;;;;;;40.95;7.90;;;7.70;73.70;;;;;;5095255;28;20048;-85
2022/02/21 10:42:35;;;;;;;50.22;8.85;;;7.80;73.60;;;;;;5095351;28;20050;-87
2022/02/21 10:45:13;;;;;;;42.33;7.82;;;7.80;73.50;;;;;;5094508;28;20544;-85
2022/02/21 10:48:20;;;;;;;50.85;8.98;;;7.80;73.50;;;;;;5092031;28;20706;-88
2022/02/21 10:50:58;;;;;;;42.35;8.73;;;7.80;73.40;;;;;;5089679;28;20048;-86
2022/02/21 10:53:46;;;;;;;40.33;7.63;;;7.90;73.30;;;;;;5075886;28;20044;-85
2022/02/21 10:56:14;;;;;;;44.65;7.38;;;7.90;73.20;;;;;;5092049;28;20433;-86
2022/02/21 10:58:41;;;;;;;42.33;7.85;;;7.90;73.20;;;;;;5097491;28;20052;-86
2022/02/21 11:01:10;;;;;;;43.70;7.90;;;7.90;73.10;;;;;;5094001;28;20056;-87
2022/02/21 11:03:39;;;;;;;37.70;8.07;;;7.90;73.00;;;;;;5094083;28;20106;-88
2022/02/21 11:06:06;;;;;;;48.97;7.75;;;7.90;73.00;;;;;;5095953;28;20089;-88
2022/02/21 11:08:33;;;;;;;36.58;7.55;;;7.90;72.90;;;;;;5092609;28;20089;-87
2022/02/21 11:11:09;;;;;;;52.30;8.05;;;7.90;72.90;;;;;;5094047;28;20044;-87
2022/02/21 11:13:37;;;;;;;44.58;8.35;;;7.90;72.80;;;;;;5107755;28;20501;-87
2022/02/21 11:16:05;;;;;;;46.80;7.85;;;8.00;72.80;;;;;;5095620;28;20098;-87
2022/02/21 11:18:34;;;;;;;46.08;8.45;;;8.00;72.70;;;;;;5094094;28;20055;-87
2022/02/21 11:21:03;;;;;;;50.58;7.88;;;8.00;72.70;;;;;;5104409;28;20054;-89
2022/02/21 11:23:31;;;;;;;44.22;8.07;;;8.00;72.60;;;;;;5090053;28;20051;-88
2022/02/21 11:26:06;;;;;;;37.70;8.13;;;8.00;72.60;;;;;;5077073;28;20056;-88
2022/02/21 11:29:04;;;;;;;42.83;7.45;;;8.00;72.50;;;;;;5095973;28;20101;-88
2022/02/21 11:31:33;;;;;;;47.85;7.47;;;8.10;72.50;;;;;;5096859;28;20048;-88
2022/02/21 11:34:05;;;;;;;39.60;7.15;;;8.10;72.40;;;;;;5093901;28;20048;-87
2022/02/21 11:36:33;;;;;;;47.95;8.00;;;8.10;72.50;;;;;;5093580;28;20097;-88
2022/02/21 11:39:22;;;;;;;45.97;8.88;;;8.10;72.40;;;;;;5092514;28;20505;-87
2022/02/21 11:42:17;;;;;;;49.47;8.05;;;8.20;72.40;;;;;;5093458;28;20044;-87
2022/02/21 11:44:58;;;;;;;33.33;7.70;;;8.20;72.30;;;;;;5091955;28;20528;-86
2022/02/21 11:47:38;;;;;;;53.20;8.88;;;8.20;72.20;;;;;;5075513;28;20045;-87
2022/02/21 11:50:21;;;;;;;43.45;8.18;;;8.20;72.10;;;;;;5093597;28;20331;-87
2022/02/21 11:52:50;;;;;;;44.33;7.65;;;8.20;72.10;;;;;;5097067;28;20051;-87
2022/02/21 11:55:29;;;;;;;42.63;6.93;;;8.20;72.10;;;;;;5094174;28;20044;-87
2022/02/21 11:57:57;;;;;;;41.97;8.05;;;8.30;72.10;;;;;;5093740;28;20063;-88
2022/02/21 12:00:36;;;;;;;34.20;7.15;;;8.30;72.10;;;;;;5087879;28;20043;-88
2022/02/21 12:03:22;;;;;;;46.10;8.13;;;8.40;72.10;;;;;;5103447;28;20405;-88
2022/02/21 12:06:10;;;;;;;39.05;6.30;;;8.40;72.00;;;;;;5092186;28;20050;-88
2022/02/21 12:09:01;;;;;;;41.42;7.57;;;8.40;72.00;;;;;;5080233;28;20086;-87
2022/02/21 12:11:30;;;;;;;40.55;8.45;;;8.40;71.90;;;;;;5089615;28;20064;-86
2022/02/21 12:14:12;;;;;;;42.92;7.97;;;8.40;71.90;;;;;;5094802;28;20059;-87
2022/02/21 12:16:57;;;;;;;43.55;7.82;;;8.40;71.90;;;;;;5095533;28;20055;-86
2022/02/21 12:19:29;;;;;;;40.40;7.95;;;8.50;71.90;;;;;;5101166;28;20047;-87
2022/02/21 12:22:06;;;;;;;41.67;7.95;;;8.50;71.80;;;;;;5095646;28;20043;-86
2022/02/21 12:24:34;;;;;;;41.80;8.02;;;8.50;71.80;;;;;;5093780;28;20051;-87
2022/02/21 12:27:13;;;;;;;43.53;7.95;;;8.60;71.70;;;;;;5092592;28;20493;-88
2022/02/21 12:29:40;;;;;;;42.55;7.65;;;8.60;71.70;;;;;;5092345;28;20040;-86
2022/02/21 12:32:11;;;;;;;43.95;7.93;;;8.60;71.60;;;;;;5092152;28;20052;-88
2022/02/21 12:34:39;;;;;;;41.50;7.63;;;8.60;71.60;;;;;;5095502;28;20052;-86
2022/02/21 12:37:08;;;;;;;42.10;7.63;;;8.70;71.60;;;;;;5091924;28;20528;-88
2022/02/21 12:39:39;;;;;;;44.00;7.53;;;8.70;71.60;;;;;;5092345;28;20048;-88
2022/02/21 12:42:07;;;;;;;39.60;7.40;;;8.70;71.60;;;;;;5093358;28;20067;-87
2022/02/21 12:44:34;;;;;;;33.28;6.88;;;8.80;71.60;;;;;;5089193;28;20109;-89
2022/02/21 12:47:05;;;;;;;41.95;8.07;;;8.80;71.60;;;;;;5092856;28;20051;-88
2022/02/21 12:49:47;;;;;;;38.53;6.90;;;8.80;71.60;;;;;;5078432;28;20101;-88
2022/02/21 12:52:15;;;;;;;43.35;8.13;;;8.80;71.60;;;;;;5062815;28;20426;-88
2022/02/21 12:54:48;;;;;;;32.83;6.82;;;8.80;71.60;;;;;;5053584;28;20506;-88
2022/02/21 12:57:20;;;;;;;45.47;8.32;;;8.80;71.60;;;;;;5051847;28;20532;-87